Varzea Grande, Brazil
Current Conditions -  °F | °C
As of 1:00 PM on Wednesday 26 Nov 2014 (Local Time) from SBTE Reporting Station
Scattered Clouds Scattered Clouds  
Wind Chill: 95°   Ceiling: Unl
Heat Index: 98°   Visibility: 6mi
Dew Point: 66°   Wind: 6mph
Humidity: 39%   Direction: 280°W
Pressure: 29.77"   Gusts: NA
Location:  6.54°S, 42.23°W
Report Text: SBTE 261600Z 28005KT 9999 SCT030 35/19 Q1008
Loading
Personal Weather Stations






























Interactive Weather Map New forecast layout! Learn more

10-Day Weather Forecast

Advertisements
Track Severe Weather on mobile